Yasny, Russia
Current Conditions -  °F | °C
As of 4:00 PM on Thursday 18 Dec 2014 (Local Time) from UWOR Reporting Station
Clear Clear  
Wind Chill: 10°   Ceiling: Unl
Heat Index: 10°   Visibility: 6mi
Dew Point:   Wind: 2mph
Humidity: 92%   Direction: NA
Pressure: 30.36"   Gusts: NA
Location:  51°N, 59.53°E
Report Text: UWOR 181100Z VRB01MPS CAVOK M12/M13 Q1028 25420155 NOSIG RMKQFE747/0996
Loading
Personal Weather Stations






























Interactive Weather Map New forecast layout! Learn more

10-Day Weather Forecast

Advertisements
Track Severe Weather on mobile